sensor_id;sensor_type;location;lat;lon;timestamp;P1;durP1;ratioP1;P2;durP2;ratioP2
38940;SDS011;43236;47.208;7.518;2023-04-08T00:00:41;2.22;;;1.40;;
38940;SDS011;43236;47.208;7.518;2023-04-08T00:03:29;2.47;;;1.23;;
38940;SDS011;43236;47.208;7.518;2023-04-08T00:06:16;6.65;;;1.60;;
38940;SDS011;43236;47.208;7.518;2023-04-08T00:09:05;4.50;;;1.50;;
38940;SDS011;43236;47.208;7.518;2023-04-08T00:11:52;3.83;;;1.52;;
38940;SDS011;43236;47.208;7.518;2023-04-08T00:14:39;3.08;;;1.40;;
38940;SDS011;43236;47.208;7.518;2023-04-08T00:17:26;3.85;;;1.80;;
38940;SDS011;43236;47.208;7.518;2023-04-08T00:20:13;3.50;;;1.60;;
38940;SDS011;43236;47.208;7.518;2023-04-08T00:23:00;3.05;;;1.58;;
38940;SDS011;43236;47.208;7.518;2023-04-08T00:25:48;4.13;;;1.50;;
38940;SDS011;43236;47.208;7.518;2023-04-08T00:28:35;3.60;;;1.60;;
38940;SDS011;43236;47.208;7.518;2023-04-08T00:31:22;3.25;;;1.50;;
38940;SDS011;43236;47.208;7.518;2023-04-08T00:34:10;2.67;;;1.40;;
38940;SDS011;43236;47.208;7.518;2023-04-08T00:36:57;3.53;;;1.85;;
38940;SDS011;43236;47.208;7.518;2023-04-08T00:39:44;3.65;;;1.80;;
38940;SDS011;43236;47.208;7.518;2023-04-08T00:42:32;3.38;;;1.70;;
38940;SDS011;43236;47.208;7.518;2023-04-08T00:45:19;3.22;;;1.52;;
38940;SDS011;43236;47.208;7.518;2023-04-08T00:48:06;2.30;;;1.50;;
38940;SDS011;43236;47.208;7.518;2023-04-08T00:50:54;5.25;;;1.70;;
38940;SDS011;43236;47.208;7.518;2023-04-08T00:53:41;3.00;;;1.42;;
38940;SDS011;43236;47.208;7.518;2023-04-08T00:56:28;2.95;;;1.70;;
38940;SDS011;43236;47.208;7.518;2023-04-08T00:59:16;3.83;;;1.50;;
38940;SDS011;43236;47.208;7.518;2023-04-08T01:02:06;3.22;;;1.63;;
38940;SDS011;43236;47.208;7.518;2023-04-08T01:05:01;3.83;;;1.58;;
38940;SDS011;43236;47.208;7.518;2023-04-08T01:07:50;2.28;;;1.20;;
38940;SDS011;43236;47.208;7.518;2023-04-08T01:10:37;2.58;;;1.30;;
38940;SDS011;43236;47.208;7.518;2023-04-08T01:13:29;3.47;;;1.45;;
38940;SDS011;43236;47.208;7.518;2023-04-08T01:16:21;3.60;;;1.50;;
38940;SDS011;43236;47.208;7.518;2023-04-08T01:19:26;3.00;;;1.50;;
38940;SDS011;43236;47.208;7.518;2023-04-08T01:22:18;2.78;;;1.50;;
38940;SDS011;43236;47.208;7.518;2023-04-08T01:25:14;3.20;;;1.60;;
38940;SDS011;43236;47.208;7.518;2023-04-08T01:28:06;2.78;;;1.70;;
38940;SDS011;43236;47.208;7.518;2023-04-08T01:30:56;3.88;;;1.80;;
38940;SDS011;43236;47.208;7.518;2023-04-08T01:33:45;3.97;;;1.65;;
38940;SDS011;43236;47.208;7.518;2023-04-08T01:36:33;3.42;;;1.77;;
38940;SDS011;43236;47.208;7.518;2023-04-08T01:39:22;3.28;;;1.58;;
38940;SDS011;43236;47.208;7.518;2023-04-08T01:42:10;4.30;;;1.50;;
38940;SDS011;43236;47.208;7.518;2023-04-08T01:45:00;3.28;;;1.55;;
38940;SDS011;43236;47.208;7.518;2023-04-08T01:47:49;4.85;;;1.73;;
38940;SDS011;43236;47.208;7.518;2023-04-08T01:50:36;4.03;;;1.80;;
38940;SDS011;43236;47.208;7.518;2023-04-08T01:53:26;3.92;;;1.75;;
38940;SDS011;43236;47.208;7.518;2023-04-08T01:56:13;4.35;;;1.73;;
38940;SDS011;43236;47.208;7.518;2023-04-08T01:59:01;3.63;;;2.05;;
38940;SDS011;43236;47.208;7.518;2023-04-08T02:01:53;3.65;;;1.60;;
38940;SDS011;43236;47.208;7.518;2023-04-08T02:04:41;3.45;;;1.92;;
38940;SDS011;43236;47.208;7.518;2023-04-08T02:07:28;3.53;;;2.00;;
38940;SDS011;43236;47.208;7.518;2023-04-08T02:10:15;5.28;;;2.47;;
38940;SDS011;43236;47.208;7.518;2023-04-08T02:13:02;4.55;;;2.13;;
38940;SDS011;43236;47.208;7.518;2023-04-08T02:15:50;4.43;;;2.10;;
38940;SDS011;43236;47.208;7.518;2023-04-08T02:18:44;4.20;;;2.20;;
38940;SDS011;43236;47.208;7.518;2023-04-08T02:21:42;4.53;;;2.47;;
38940;SDS011;43236;47.208;7.518;2023-04-08T02:24:32;5.57;;;2.28;;
38940;SDS011;43236;47.208;7.518;2023-04-08T02:27:21;5.32;;;2.28;;
38940;SDS011;43236;47.208;7.518;2023-04-08T02:30:10;4.72;;;2.70;;
38940;SDS011;43236;47.208;7.518;2023-04-08T02:32:58;4.93;;;2.50;;
38940;SDS011;43236;47.208;7.518;2023-04-08T02:35:50;5.15;;;2.15;;
38940;SDS011;43236;47.208;7.518;2023-04-08T02:38:38;4.70;;;2.53;;
38940;SDS011;43236;47.208;7.518;2023-04-08T02:41:27;5.35;;;2.30;;
38940;SDS011;43236;47.208;7.518;2023-04-08T02:44:14;4.07;;;2.22;;
38940;SDS011;43236;47.208;7.518;2023-04-08T02:47:01;3.47;;;2.00;;
38940;SDS011;43236;47.208;7.518;2023-04-08T02:49:48;5.25;;;2.40;;
38940;SDS011;43236;47.208;7.518;2023-04-08T02:52:38;4.07;;;2.10;;
38940;SDS011;43236;47.208;7.518;2023-04-08T02:55:25;3.22;;;1.65;;
38940;SDS011;43236;47.208;7.518;2023-04-08T02:58:12;3.45;;;1.95;;
38940;SDS011;43236;47.208;7.518;2023-04-08T03:01:00;4.60;;;2.13;;
38940;SDS011;43236;47.208;7.518;2023-04-08T03:03:47;3.78;;;2.00;;
38940;SDS011;43236;47.208;7.518;2023-04-08T03:06:34;4.28;;;2.00;;
38940;SDS011;43236;47.208;7.518;2023-04-08T03:09:22;3.53;;;1.77;;
38940;SDS011;43236;47.208;7.518;2023-04-08T03:12:09;4.05;;;1.95;;
38940;SDS011;43236;47.208;7.518;2023-04-08T03:14:56;4.25;;;2.00;;
38940;SDS011;43236;47.208;7.518;2023-04-08T03:17:43;3.72;;;1.80;;
38940;SDS011;43236;47.208;7.518;2023-04-08T03:20:30;4.18;;;2.08;;
38940;SDS011;43236;47.208;7.518;2023-04-08T03:23:17;3.83;;;2.13;;
38940;SDS011;43236;47.208;7.518;2023-04-08T03:26:05;5.28;;;2.78;;
38940;SDS011;43236;47.208;7.518;2023-04-08T03:28:52;7.90;;;4.53;;
38940;SDS011;43236;47.208;7.518;2023-04-08T03:31:40;7.35;;;4.68;;
38940;SDS011;43236;47.208;7.518;2023-04-08T03:34:27;10.60;;;5.88;;
38940;SDS011;43236;47.208;7.518;2023-04-08T03:37:14;6.22;;;3.58;;
38940;SDS011;43236;47.208;7.518;2023-04-08T03:40:02;7.10;;;4.07;;
38940;SDS011;43236;47.208;7.518;2023-04-08T03:42:50;9.13;;;4.28;;
38940;SDS011;43236;47.208;7.518;2023-04-08T03:45:37;7.40;;;3.95;;
38940;SDS011;43236;47.208;7.518;2023-04-08T03:48:24;7.50;;;3.70;;
38940;SDS011;43236;47.208;7.518;2023-04-08T03:51:12;5.85;;;3.50;;
38940;SDS011;43236;47.208;7.518;2023-04-08T03:53:59;6.18;;;3.28;;
38940;SDS011;43236;47.208;7.518;2023-04-08T03:56:47;6.15;;;3.28;;
38940;SDS011;43236;47.208;7.518;2023-04-08T03:59:36;7.07;;;3.63;;
38940;SDS011;43236;47.208;7.518;2023-04-08T04:02:23;5.55;;;3.28;;
38940;SDS011;43236;47.208;7.518;2023-04-08T04:05:10;6.15;;;3.22;;
38940;SDS011;43236;47.208;7.518;2023-04-08T04:07:57;5.47;;;3.40;;
38940;SDS011;43236;47.208;7.518;2023-04-08T04:10:45;5.50;;;3.20;;
38940;SDS011;43236;47.208;7.518;2023-04-08T04:13:32;5.85;;;3.00;;
38940;SDS011;43236;47.208;7.518;2023-04-08T04:16:20;5.53;;;3.35;;
38940;SDS011;43236;47.208;7.518;2023-04-08T04:19:07;5.18;;;3.25;;
38940;SDS011;43236;47.208;7.518;2023-04-08T04:21:54;6.82;;;3.58;;
38940;SDS011;43236;47.208;7.518;2023-04-08T04:24:45;5.68;;;3.25;;
38940;SDS011;43236;47.208;7.518;2023-04-08T04:27:33;5.75;;;3.35;;
38940;SDS011;43236;47.208;7.518;2023-04-08T04:30:21;5.18;;;3.10;;
38940;SDS011;43236;47.208;7.518;2023-04-08T04:33:09;8.00;;;3.85;;
38940;SDS011;43236;47.208;7.518;2023-04-08T04:35:56;7.78;;;3.55;;
38940;SDS011;43236;47.208;7.518;2023-04-08T04:38:43;6.47;;;3.25;;
38940;SDS011;43236;47.208;7.518;2023-04-08T04:41:30;6.53;;;3.25;;
38940;SDS011;43236;47.208;7.518;2023-04-08T04:44:19;6.63;;;2.92;;
38940;SDS011;43236;47.208;7.518;2023-04-08T04:47:06;6.72;;;3.58;;
38940;SDS011;43236;47.208;7.518;2023-04-08T04:49:55;5.68;;;3.22;;
38940;SDS011;43236;47.208;7.518;2023-04-08T04:52:42;6.90;;;3.47;;
38940;SDS011;43236;47.208;7.518;2023-04-08T04:55:29;8.50;;;3.58;;
38940;SDS011;43236;47.208;7.518;2023-04-08T04:58:16;6.43;;;3.55;;
38940;SDS011;43236;47.208;7.518;2023-04-08T05:01:03;7.25;;;3.33;;
38940;SDS011;43236;47.208;7.518;2023-04-08T05:03:50;6.32;;;3.67;;
38940;SDS011;43236;47.208;7.518;2023-04-08T05:06:39;9.35;;;3.75;;
38940;SDS011;43236;47.208;7.518;2023-04-08T05:09:26;6.80;;;3.40;;
38940;SDS011;43236;47.208;7.518;2023-04-08T05:12:14;6.45;;;3.80;;
38940;SDS011;43236;47.208;7.518;2023-04-08T05:15:01;8.30;;;4.00;;
38940;SDS011;43236;47.208;7.518;2023-04-08T05:17:48;6.47;;;4.15;;
38940;SDS011;43236;47.208;7.518;2023-04-08T05:20:36;8.57;;;3.97;;
38940;SDS011;43236;47.208;7.518;2023-04-08T05:23:24;6.43;;;3.83;;
38940;SDS011;43236;47.208;7.518;2023-04-08T05:26:11;5.75;;;3.80;;
38940;SDS011;43236;47.208;7.518;2023-04-08T05:28:58;6.75;;;3.90;;
38940;SDS011;43236;47.208;7.518;2023-04-08T05:31:45;7.45;;;4.55;;
38940;SDS011;43236;47.208;7.518;2023-04-08T05:34:32;5.95;;;3.78;;
38940;SDS011;43236;47.208;7.518;2023-04-08T05:37:19;7.80;;;3.97;;
38940;SDS011;43236;47.208;7.518;2023-04-08T05:40:08;6.72;;;4.22;;
38940;SDS011;43236;47.208;7.518;2023-04-08T05:42:56;10.00;;;4.25;;
38940;SDS011;43236;47.208;7.518;2023-04-08T05:45:43;7.15;;;4.50;;
38940;SDS011;43236;47.208;7.518;2023-04-08T05:48:30;8.15;;;4.40;;
38940;SDS011;43236;47.208;7.518;2023-04-08T05:51:17;7.35;;;3.80;;
38940;SDS011;43236;47.208;7.518;2023-04-08T05:54:04;7.45;;;3.95;;
38940;SDS011;43236;47.208;7.518;2023-04-08T05:56:52;7.13;;;4.07;;
38940;SDS011;43236;47.208;7.518;2023-04-08T05:59:39;7.07;;;4.13;;
38940;SDS011;43236;47.208;7.518;2023-04-08T06:02:26;8.60;;;4.00;;
38940;SDS011;43236;47.208;7.518;2023-04-08T06:05:13;7.05;;;3.88;;
38940;SDS011;43236;47.208;7.518;2023-04-08T06:08:01;6.97;;;3.85;;
38940;SDS011;43236;47.208;7.518;2023-04-08T06:10:48;7.18;;;4.13;;
38940;SDS011;43236;47.208;7.518;2023-04-08T06:13:37;11.98;;;4.00;;
38940;SDS011;43236;47.208;7.518;2023-04-08T06:16:24;9.00;;;3.80;;
38940;SDS011;43236;47.208;7.518;2023-04-08T06:19:11;6.22;;;3.65;;
38940;SDS011;43236;47.208;7.518;2023-04-08T06:21:58;5.53;;;3.50;;
38940;SDS011;43236;47.208;7.518;2023-04-08T06:24:45;6.55;;;3.60;;
38940;SDS011;43236;47.208;7.518;2023-04-08T06:27:32;7.57;;;3.47;;
38940;SDS011;43236;47.208;7.518;2023-04-08T06:30:21;9.27;;;3.53;;
38940;SDS011;43236;47.208;7.518;2023-04-08T06:33:08;5.82;;;3.35;;
38940;SDS011;43236;47.208;7.518;2023-04-08T06:36:02;6.10;;;3.15;;
38940;SDS011;43236;47.208;7.518;2023-04-08T06:38:49;5.93;;;3.00;;
38940;SDS011;43236;47.208;7.518;2023-04-08T06:41:36;5.22;;;3.08;;
38940;SDS011;43236;47.208;7.518;2023-04-08T06:44:23;7.50;;;3.33;;
38940;SDS011;43236;47.208;7.518;2023-04-08T06:47:12;5.00;;;3.00;;
38940;SDS011;43236;47.208;7.518;2023-04-08T06:49:59;4.38;;;2.80;;
38940;SDS011;43236;47.208;7.518;2023-04-08T06:52:46;4.47;;;2.75;;
38940;SDS011;43236;47.208;7.518;2023-04-08T06:55:33;6.57;;;3.45;;
38940;SDS011;43236;47.208;7.518;2023-04-08T06:58:20;13.15;;;7.03;;
38940;SDS011;43236;47.208;7.518;2023-04-08T07:01:07;6.05;;;3.10;;
38940;SDS011;43236;47.208;7.518;2023-04-08T07:03:56;6.60;;;3.55;;
38940;SDS011;43236;47.208;7.518;2023-04-08T07:06:43;10.13;;;4.70;;
38940;SDS011;43236;47.208;7.518;2023-04-08T07:09:30;6.20;;;3.83;;
38940;SDS011;43236;47.208;7.518;2023-04-08T07:12:17;7.60;;;3.53;;
38940;SDS011;43236;47.208;7.518;2023-04-08T07:15:05;6.00;;;3.42;;
38940;SDS011;43236;47.208;7.518;2023-04-08T07:17:53;7.57;;;3.25;;
38940;SDS011;43236;47.208;7.518;2023-04-08T07:20:42;5.00;;;3.25;;
38940;SDS011;43236;47.208;7.518;2023-04-08T07:23:29;7.18;;;3.28;;
38940;SDS011;43236;47.208;7.518;2023-04-08T07:26:16;6.88;;;3.45;;
38940;SDS011;43236;47.208;7.518;2023-04-08T07:29:04;4.70;;;2.95;;
38940;SDS011;43236;47.208;7.518;2023-04-08T07:31:51;5.80;;;3.13;;
38940;SDS011;43236;47.208;7.518;2023-04-08T07:34:38;6.18;;;3.55;;
38940;SDS011;43236;47.208;7.518;2023-04-08T07:37:27;8.25;;;3.53;;
38940;SDS011;43236;47.208;7.518;2023-04-08T07:40:14;6.20;;;3.28;;
38940;SDS011;43236;47.208;7.518;2023-04-08T07:43:01;6.38;;;3.00;;
38940;SDS011;43236;47.208;7.518;2023-04-08T07:45:48;5.45;;;2.72;;
38940;SDS011;43236;47.208;7.518;2023-04-08T07:48:35;5.93;;;3.05;;
38940;SDS011;43236;47.208;7.518;2023-04-08T07:51:22;5.28;;;3.05;;
38940;SDS011;43236;47.208;7.518;2023-04-08T07:54:11;8.35;;;3.38;;
38940;SDS011;43236;47.208;7.518;2023-04-08T07:57:01;9.07;;;3.13;;
38940;SDS011;43236;47.208;7.518;2023-04-08T07:59:48;5.10;;;3.10;;
38940;SDS011;43236;47.208;7.518;2023-04-08T08:02:35;8.30;;;3.15;;
38940;SDS011;43236;47.208;7.518;2023-04-08T08:05:22;5.47;;;2.92;;
38940;SDS011;43236;47.208;7.518;2023-04-08T08:08:09;6.03;;;3.20;;
38940;SDS011;43236;47.208;7.518;2023-04-08T08:10:58;5.68;;;3.05;;
38940;SDS011;43236;47.208;7.518;2023-04-08T08:13:45;5.95;;;3.20;;
38940;SDS011;43236;47.208;7.518;2023-04-08T08:16:32;7.78;;;3.47;;
38940;SDS011;43236;47.208;7.518;2023-04-08T08:19:19;6.60;;;2.97;;
38940;SDS011;43236;47.208;7.518;2023-04-08T08:22:06;8.55;;;3.70;;
38940;SDS011;43236;47.208;7.518;2023-04-08T08:24:56;6.38;;;3.40;;
38940;SDS011;43236;47.208;7.518;2023-04-08T08:27:45;6.93;;;3.17;;
38940;SDS011;43236;47.208;7.518;2023-04-08T08:30:32;6.00;;;3.40;;
38940;SDS011;43236;47.208;7.518;2023-04-08T08:33:19;7.18;;;3.20;;
38940;SDS011;43236;47.208;7.518;2023-04-08T08:36:06;7.80;;;4.15;;
38940;SDS011;43236;47.208;7.518;2023-04-08T08:38:53;6.97;;;4.47;;
38940;SDS011;43236;47.208;7.518;2023-04-08T08:41:40;7.53;;;3.80;;
38940;SDS011;43236;47.208;7.518;2023-04-08T08:44:29;7.63;;;3.65;;
38940;SDS011;43236;47.208;7.518;2023-04-08T08:47:16;6.63;;;3.40;;
38940;SDS011;43236;47.208;7.518;2023-04-08T08:50:04;8.20;;;3.95;;
38940;SDS011;43236;47.208;7.518;2023-04-08T08:52:52;8.57;;;5.15;;
38940;SDS011;43236;47.208;7.518;2023-04-08T08:55:39;8.55;;;4.20;;
38940;SDS011;43236;47.208;7.518;2023-04-08T08:58:26;6.95;;;4.03;;
38940;SDS011;43236;47.208;7.518;2023-04-08T09:01:31;6.82;;;3.72;;
38940;SDS011;43236;47.208;7.518;2023-04-08T09:04:20;7.93;;;4.18;;
38940;SDS011;43236;47.208;7.518;2023-04-08T09:07:08;7.20;;;4.47;;
38940;SDS011;43236;47.208;7.518;2023-04-08T09:09:58;8.68;;;4.28;;
38940;SDS011;43236;47.208;7.518;2023-04-08T09:12:52;6.82;;;3.95;;
38940;SDS011;43236;47.208;7.518;2023-04-08T09:15:49;8.38;;;4.40;;
38940;SDS011;43236;47.208;7.518;2023-04-08T09:18:49;6.60;;;4.05;;
38940;SDS011;43236;47.208;7.518;2023-04-08T09:21:36;7.82;;;3.92;;
38940;SDS011;43236;47.208;7.518;2023-04-08T09:24:28;8.02;;;4.05;;
38940;SDS011;43236;47.208;7.518;2023-04-08T09:27:16;7.78;;;3.90;;
38940;SDS011;43236;47.208;7.518;2023-04-08T09:30:20;6.35;;;3.95;;
38940;SDS011;43236;47.208;7.518;2023-04-08T09:33:09;8.02;;;4.20;;
38940;SDS011;43236;47.208;7.518;2023-04-08T09:35:57;7.55;;;4.40;;
38940;SDS011;43236;47.208;7.518;2023-04-08T09:38:44;7.70;;;4.13;;
38940;SDS011;43236;47.208;7.518;2023-04-08T09:41:32;10.00;;;5.03;;
38940;SDS011;43236;47.208;7.518;2023-04-08T09:44:20;6.57;;;4.00;;
38940;SDS011;43236;47.208;7.518;2023-04-08T09:47:15;9.52;;;3.90;;
38940;SDS011;43236;47.208;7.518;2023-04-08T09:50:05;8.27;;;4.35;;
38940;SDS011;43236;47.208;7.518;2023-04-08T09:52:59;7.63;;;4.35;;
38940;SDS011;43236;47.208;7.518;2023-04-08T09:55:49;7.07;;;4.30;;
38940;SDS011;43236;47.208;7.518;2023-04-08T09:58:40;6.47;;;3.83;;
38940;SDS011;43236;47.208;7.518;2023-04-08T10:01:33;6.22;;;3.63;;
38940;SDS011;43236;47.208;7.518;2023-04-08T10:04:24;6.32;;;3.67;;
38940;SDS011;43236;47.208;7.518;2023-04-08T10:07:13;6.28;;;3.50;;
38940;SDS011;43236;47.208;7.518;2023-04-08T10:10:02;6.25;;;3.95;;
38940;SDS011;43236;47.208;7.518;2023-04-08T10:12:51;5.72;;;3.53;;
38940;SDS011;43236;47.208;7.518;2023-04-08T10:15:38;10.43;;;4.07;;
38940;SDS011;43236;47.208;7.518;2023-04-08T10:18:30;7.10;;;3.35;;
38940;SDS011;43236;47.208;7.518;2023-04-08T10:21:35;6.57;;;3.50;;
38940;SDS011;43236;47.208;7.518;2023-04-08T10:24:23;6.38;;;3.33;;
38940;SDS011;43236;47.208;7.518;2023-04-08T10:27:24;5.82;;;3.47;;
38940;SDS011;43236;47.208;7.518;2023-04-08T10:30:38;6.40;;;3.40;;
38940;SDS011;43236;47.208;7.518;2023-04-08T10:33:30;7.57;;;3.97;;
38940;SDS011;43236;47.208;7.518;2023-04-08T10:36:18;6.15;;;3.60;;
38940;SDS011;43236;47.208;7.518;2023-04-08T10:39:05;8.57;;;4.10;;
38940;SDS011;43236;47.208;7.518;2023-04-08T10:41:52;7.55;;;3.83;;
38940;SDS011;43236;47.208;7.518;2023-04-08T10:44:44;6.20;;;3.50;;
38940;SDS011;43236;47.208;7.518;2023-04-08T10:47:32;8.18;;;4.03;;
38940;SDS011;43236;47.208;7.518;2023-04-08T10:50:19;7.43;;;3.78;;
38940;SDS011;43236;47.208;7.518;2023-04-08T10:53:07;6.78;;;4.15;;
38940;SDS011;43236;47.208;7.518;2023-04-08T10:56:02;6.90;;;3.72;;
38940;SDS011;43236;47.208;7.518;2023-04-08T10:58:51;7.45;;;3.50;;
38940;SDS011;43236;47.208;7.518;2023-04-08T11:01:42;6.07;;;3.58;;
38940;SDS011;43236;47.208;7.518;2023-04-08T11:04:30;5.88;;;3.40;;
38940;SDS011;43236;47.208;7.518;2023-04-08T11:07:19;7.05;;;3.97;;
38940;SDS011;43236;47.208;7.518;2023-04-08T11:10:06;5.65;;;2.90;;
38940;SDS011;43236;47.208;7.518;2023-04-08T11:12:54;7.53;;;3.55;;
38940;SDS011;43236;47.208;7.518;2023-04-08T11:15:41;6.50;;;3.67;;
38940;SDS011;43236;47.208;7.518;2023-04-08T11:18:30;5.13;;;3.00;;
38940;SDS011;43236;47.208;7.518;2023-04-08T11:21:19;4.97;;;3.08;;
38940;SDS011;43236;47.208;7.518;2023-04-08T11:24:08;5.40;;;3.25;;
38940;SDS011;43236;47.208;7.518;2023-04-08T11:26:57;5.65;;;3.10;;
38940;SDS011;43236;47.208;7.518;2023-04-08T11:29:44;6.13;;;3.50;;
38940;SDS011;43236;47.208;7.518;2023-04-08T11:32:31;10.50;;;6.03;;
38940;SDS011;43236;47.208;7.518;2023-04-08T11:35:20;5.45;;;2.97;;
38940;SDS011;43236;47.208;7.518;2023-04-08T11:38:08;7.30;;;3.58;;
38940;SDS011;43236;47.208;7.518;2023-04-08T11:40:56;9.43;;;4.50;;
38940;SDS011;43236;47.208;7.518;2023-04-08T11:43:51;6.60;;;3.45;;
38940;SDS011;43236;47.208;7.518;2023-04-08T11:46:49;5.93;;;3.50;;
38940;SDS011;43236;47.208;7.518;2023-04-08T11:49:43;6.32;;;3.03;;
38940;SDS011;43236;47.208;7.518;2023-04-08T11:52:41;4.93;;;2.85;;
38940;SDS011;43236;47.208;7.518;2023-04-08T11:55:29;4.78;;;2.85;;
38940;SDS011;43236;47.208;7.518;2023-04-08T11:58:18;5.25;;;2.90;;
38940;SDS011;43236;47.208;7.518;2023-04-08T12:01:05;4.68;;;2.80;;
38940;SDS011;43236;47.208;7.518;2023-04-08T12:03:52;5.90;;;3.30;;
38940;SDS011;43236;47.208;7.518;2023-04-08T12:06:40;5.25;;;3.22;;
38940;SDS011;43236;47.208;7.518;2023-04-08T12:09:32;5.88;;;3.42;;
38940;SDS011;43236;47.208;7.518;2023-04-08T12:12:19;5.45;;;2.88;;
38940;SDS011;43236;47.208;7.518;2023-04-08T12:15:07;6.35;;;3.30;;
38940;SDS011;43236;47.208;7.518;2023-04-08T12:17:55;6.15;;;3.25;;
38940;SDS011;43236;47.208;7.518;2023-04-08T12:20:42;7.30;;;3.60;;
38940;SDS011;43236;47.208;7.518;2023-04-08T12:23:29;9.18;;;4.35;;
38940;SDS011;43236;47.208;7.518;2023-04-08T12:26:18;7.32;;;3.63;;
38940;SDS011;43236;47.208;7.518;2023-04-08T12:29:05;4.00;;;2.10;;
38940;SDS011;43236;47.208;7.518;2023-04-08T12:31:53;3.85;;;2.20;;
38940;SDS011;43236;47.208;7.518;2023-04-08T12:34:41;5.72;;;2.58;;
38940;SDS011;43236;47.208;7.518;2023-04-08T12:37:28;3.70;;;2.10;;
38940;SDS011;43236;47.208;7.518;2023-04-08T12:40:17;3.95;;;1.80;;
38940;SDS011;43236;47.208;7.518;2023-04-08T12:43:06;3.20;;;1.95;;
38940;SDS011;43236;47.208;7.518;2023-04-08T12:45:53;5.35;;;2.53;;
38940;SDS011;43236;47.208;7.518;2023-04-08T12:48:40;5.50;;;2.38;;
38940;SDS011;43236;47.208;7.518;2023-04-08T12:51:29;5.93;;;2.53;;
38940;SDS011;43236;47.208;7.518;2023-04-08T12:54:16;6.03;;;2.67;;
38940;SDS011;43236;47.208;7.518;2023-04-08T12:57:03;5.07;;;2.50;;
38940;SDS011;43236;47.208;7.518;2023-04-08T12:59:51;5.95;;;2.67;;
38940;SDS011;43236;47.208;7.518;2023-04-08T13:02:38;6.05;;;3.17;;
38940;SDS011;43236;47.208;7.518;2023-04-08T13:05:26;4.85;;;2.38;;
38940;SDS011;43236;47.208;7.518;2023-04-08T13:08:13;8.70;;;2.67;;
38940;SDS011;43236;47.208;7.518;2023-04-08T13:11:01;5.35;;;2.78;;
38940;SDS011;43236;47.208;7.518;2023-04-08T13:13:48;5.72;;;2.67;;
38940;SDS011;43236;47.208;7.518;2023-04-08T13:16:37;5.13;;;2.60;;
38940;SDS011;43236;47.208;7.518;2023-04-08T13:19:24;4.50;;;2.50;;
38940;SDS011;43236;47.208;7.518;2023-04-08T13:22:11;4.97;;;2.42;;
38940;SDS011;43236;47.208;7.518;2023-04-08T13:24:58;5.93;;;3.10;;
38940;SDS011;43236;47.208;7.518;2023-04-08T13:27:46;6.38;;;2.85;;
38940;SDS011;43236;47.208;7.518;2023-04-08T13:30:33;4.63;;;2.40;;
38940;SDS011;43236;47.208;7.518;2023-04-08T13:33:22;5.07;;;2.60;;
38940;SDS011;43236;47.208;7.518;2023-04-08T13:36:09;5.80;;;2.25;;
38940;SDS011;43236;47.208;7.518;2023-04-08T13:38:56;6.28;;;2.30;;
38940;SDS011;43236;47.208;7.518;2023-04-08T13:41:43;4.18;;;2.13;;
38940;SDS011;43236;47.208;7.518;2023-04-08T13:44:30;5.10;;;2.50;;
38940;SDS011;43236;47.208;7.518;2023-04-08T13:47:17;6.72;;;2.90;;
38940;SDS011;43236;47.208;7.518;2023-04-08T13:50:07;4.97;;;2.25;;
38940;SDS011;43236;47.208;7.518;2023-04-08T13:52:54;4.65;;;2.20;;
38940;SDS011;43236;47.208;7.518;2023-04-08T13:55:42;5.63;;;2.78;;
38940;SDS011;43236;47.208;7.518;2023-04-08T13:58:29;4.32;;;2.17;;
38940;SDS011;43236;47.208;7.518;2023-04-08T14:01:16;3.65;;;1.77;;
38940;SDS011;43236;47.208;7.518;2023-04-08T14:04:03;3.95;;;2.38;;
38940;SDS011;43236;47.208;7.518;2023-04-08T14:06:52;6.10;;;2.42;;
38940;SDS011;43236;47.208;7.518;2023-04-08T14:09:39;3.92;;;2.33;;
38940;SDS011;43236;47.208;7.518;2023-04-08T14:12:26;3.47;;;1.77;;
38940;SDS011;43236;47.208;7.518;2023-04-08T14:15:13;7.30;;;2.40;;
38940;SDS011;43236;47.208;7.518;2023-04-08T14:18:00;4.10;;;1.80;;
38940;SDS011;43236;47.208;7.518;2023-04-08T14:20:47;5.18;;;2.05;;
38940;SDS011;43236;47.208;7.518;2023-04-08T14:23:35;5.22;;;1.90;;
38940;SDS011;43236;47.208;7.518;2023-04-08T14:26:22;3.63;;;1.83;;
38940;SDS011;43236;47.208;7.518;2023-04-08T14:29:10;4.07;;;1.98;;
38940;SDS011;43236;47.208;7.518;2023-04-08T14:31:57;3.97;;;1.67;;
38940;SDS011;43236;47.208;7.518;2023-04-08T14:34:44;3.22;;;1.80;;
38940;SDS011;43236;47.208;7.518;2023-04-08T14:37:31;4.65;;;2.00;;
38940;SDS011;43236;47.208;7.518;2023-04-08T14:40:20;2.90;;;1.50;;
38940;SDS011;43236;47.208;7.518;2023-04-08T14:43:07;2.95;;;1.50;;
38940;SDS011;43236;47.208;7.518;2023-04-08T14:45:54;3.42;;;1.83;;
38940;SDS011;43236;47.208;7.518;2023-04-08T14:48:41;4.05;;;2.22;;
38940;SDS011;43236;47.208;7.518;2023-04-08T14:51:28;7.28;;;2.40;;
38940;SDS011;43236;47.208;7.518;2023-04-08T14:54:15;4.43;;;2.40;;
38940;SDS011;43236;47.208;7.518;2023-04-08T14:57:04;4.32;;;2.22;;
38940;SDS011;43236;47.208;7.518;2023-04-08T14:59:52;4.18;;;2.22;;
38940;SDS011;43236;47.208;7.518;2023-04-08T15:02:39;5.13;;;2.10;;
38940;SDS011;43236;47.208;7.518;2023-04-08T15:05:26;6.75;;;2.35;;
38940;SDS011;43236;47.208;7.518;2023-04-08T15:08:13;4.75;;;2.00;;
38940;SDS011;43236;47.208;7.518;2023-04-08T15:11:00;4.90;;;2.58;;
38940;SDS011;43236;47.208;7.518;2023-04-08T15:13:48;4.03;;;1.92;;
38940;SDS011;43236;47.208;7.518;2023-04-08T15:16:35;3.75;;;1.95;;
38940;SDS011;43236;47.208;7.518;2023-04-08T15:19:22;4.32;;;2.20;;
38940;SDS011;43236;47.208;7.518;2023-04-08T15:22:09;4.05;;;2.00;;
38940;SDS011;43236;47.208;7.518;2023-04-08T15:24:57;4.57;;;2.20;;
38940;SDS011;43236;47.208;7.518;2023-04-08T15:27:44;4.53;;;2.47;;
38940;SDS011;43236;47.208;7.518;2023-04-08T15:30:32;5.43;;;2.83;;
38940;SDS011;43236;47.208;7.518;2023-04-08T15:33:20;5.35;;;2.60;;
38940;SDS011;43236;47.208;7.518;2023-04-08T15:36:07;6.15;;;3.10;;
38940;SDS011;43236;47.208;7.518;2023-04-08T15:38:55;7.78;;;2.95;;
38940;SDS011;43236;47.208;7.518;2023-04-08T15:41:42;4.72;;;2.72;;
38940;SDS011;43236;47.208;7.518;2023-04-08T15:44:29;5.65;;;2.80;;
38940;SDS011;43236;47.208;7.518;2023-04-08T15:47:18;6.78;;;2.90;;
38940;SDS011;43236;47.208;7.518;2023-04-08T15:50:06;5.68;;;2.47;;
38940;SDS011;43236;47.208;7.518;2023-04-08T15:52:54;4.40;;;2.45;;
38940;SDS011;43236;47.208;7.518;2023-04-08T15:55:41;6.05;;;2.70;;
38940;SDS011;43236;47.208;7.518;2023-04-08T15:58:28;5.60;;;2.92;;
38940;SDS011;43236;47.208;7.518;2023-04-08T16:01:15;5.13;;;2.45;;
38940;SDS011;43236;47.208;7.518;2023-04-08T16:04:04;4.82;;;2.33;;
38940;SDS011;43236;47.208;7.518;2023-04-08T16:06:51;4.75;;;2.38;;
38940;SDS011;43236;47.208;7.518;2023-04-08T16:09:38;4.28;;;2.47;;
38940;SDS011;43236;47.208;7.518;2023-04-08T16:12:25;5.25;;;2.55;;
38940;SDS011;43236;47.208;7.518;2023-04-08T16:15:13;6.07;;;2.70;;
38940;SDS011;43236;47.208;7.518;2023-04-08T16:18:01;5.88;;;2.33;;
38940;SDS011;43236;47.208;7.518;2023-04-08T16:20:50;6.20;;;2.60;;
38940;SDS011;43236;47.208;7.518;2023-04-08T16:23:37;4.93;;;2.55;;
38940;SDS011;43236;47.208;7.518;2023-04-08T16:26:24;6.22;;;2.85;;
38940;SDS011;43236;47.208;7.518;2023-04-08T16:29:13;5.90;;;2.72;;
38940;SDS011;43236;47.208;7.518;2023-04-08T16:32:00;6.72;;;3.00;;
38940;SDS011;43236;47.208;7.518;2023-04-08T16:34:47;6.90;;;3.13;;
38940;SDS011;43236;47.208;7.518;2023-04-08T16:37:35;6.25;;;2.97;;
38940;SDS011;43236;47.208;7.518;2023-04-08T16:40:22;5.80;;;2.28;;
38940;SDS011;43236;47.208;7.518;2023-04-08T16:43:09;5.63;;;2.90;;
38940;SDS011;43236;47.208;7.518;2023-04-08T16:45:56;6.95;;;3.20;;
38940;SDS011;43236;47.208;7.518;2023-04-08T16:48:43;6.50;;;3.15;;
38940;SDS011;43236;47.208;7.518;2023-04-08T16:51:30;6.43;;;2.85;;
38940;SDS011;43236;47.208;7.518;2023-04-08T16:54:20;5.57;;;3.08;;